sensor_id;sensor_type;location;lat;lon;timestamp;P1;durP1;ratioP1;P2;durP2;ratioP2
44434;SDS011;30138;20.964;105.830;2024-02-04T00:02:31;75.53;;;38.80;;
44434;SDS011;30138;20.964;105.830;2024-02-04T00:07:37;71.60;;;38.83;;
44434;SDS011;30138;20.964;105.830;2024-02-04T00:12:46;81.43;;;39.22;;
44434;SDS011;30138;20.964;105.830;2024-02-04T00:17:53;73.07;;;38.95;;
44434;SDS011;30138;20.964;105.830;2024-02-04T00:22:59;75.40;;;38.75;;
44434;SDS011;30138;20.964;105.830;2024-02-04T00:28:08;69.45;;;36.83;;
44434;SDS011;30138;20.964;105.830;2024-02-04T00:33:15;78.65;;;38.63;;
44434;SDS011;30138;20.964;105.830;2024-02-04T00:38:22;77.97;;;39.08;;
44434;SDS011;30138;20.964;105.830;2024-02-04T00:43:30;70.35;;;37.05;;
44434;SDS011;30138;20.964;105.830;2024-02-04T00:48:38;78.28;;;40.22;;
44434;SDS011;30138;20.964;105.830;2024-02-04T00:53:45;73.57;;;38.90;;
44434;SDS011;30138;20.964;105.830;2024-02-04T00:58:54;74.90;;;40.15;;
44434;SDS011;30138;20.964;105.830;2024-02-04T01:04:00;81.70;;;40.47;;
44434;SDS011;30138;20.964;105.830;2024-02-04T01:09:07;83.25;;;41.15;;
44434;SDS011;30138;20.964;105.830;2024-02-04T01:14:15;84.28;;;41.10;;
44434;SDS011;30138;20.964;105.830;2024-02-04T01:19:22;86.75;;;40.83;;
44434;SDS011;30138;20.964;105.830;2024-02-04T01:24:29;85.22;;;42.03;;
44434;SDS011;30138;20.964;105.830;2024-02-04T01:29:38;92.63;;;42.42;;
44434;SDS011;30138;20.964;105.830;2024-02-04T01:34:46;88.77;;;42.70;;
44434;SDS011;30138;20.964;105.830;2024-02-04T01:39:53;85.57;;;43.42;;
44434;SDS011;30138;20.964;105.830;2024-02-04T01:45:03;93.35;;;44.97;;
44434;SDS011;30138;20.964;105.830;2024-02-04T01:50:13;86.22;;;42.45;;
44434;SDS011;30138;20.964;105.830;2024-02-04T01:55:20;78.40;;;39.83;;
44434;SDS011;30138;20.964;105.830;2024-02-04T02:00:28;76.88;;;39.55;;
44434;SDS011;30138;20.964;105.830;2024-02-04T02:05:35;84.90;;;41.03;;
44434;SDS011;30138;20.964;105.830;2024-02-04T02:10:42;83.00;;;40.60;;
44434;SDS011;30138;20.964;105.830;2024-02-04T02:15:52;82.47;;;40.78;;
44434;SDS011;30138;20.964;105.830;2024-02-04T02:21:14;82.10;;;39.15;;
44434;SDS011;30138;20.964;105.830;2024-02-04T02:31:45;75.75;;;38.08;;
44434;SDS011;30138;20.964;105.830;2024-02-04T02:36:54;76.85;;;39.03;;
44434;SDS011;30138;20.964;105.830;2024-02-04T02:42:07;81.07;;;38.92;;
44434;SDS011;30138;20.964;105.830;2024-02-04T02:47:16;80.60;;;40.03;;
44434;SDS011;30138;20.964;105.830;2024-02-04T02:52:24;70.97;;;37.75;;
44434;SDS011;30138;20.964;105.830;2024-02-04T02:57:32;82.60;;;39.90;;
44434;SDS011;30138;20.964;105.830;2024-02-04T03:02:40;78.15;;;39.70;;
44434;SDS011;30138;20.964;105.830;2024-02-04T03:07:47;75.50;;;37.17;;
44434;SDS011;30138;20.964;105.830;2024-02-04T03:12:56;72.93;;;38.20;;
44434;SDS011;30138;20.964;105.830;2024-02-04T03:18:03;75.30;;;38.17;;
44434;SDS011;30138;20.964;105.830;2024-02-04T03:23:10;76.22;;;38.50;;
44434;SDS011;30138;20.964;105.830;2024-02-04T03:28:19;73.18;;;37.97;;
44434;SDS011;30138;20.964;105.830;2024-02-04T03:33:26;76.22;;;38.05;;
44434;SDS011;30138;20.964;105.830;2024-02-04T03:38:37;72.93;;;36.15;;
44434;SDS011;30138;20.964;105.830;2024-02-04T03:43:46;72.18;;;38.38;;
44434;SDS011;30138;20.964;105.830;2024-02-04T03:48:52;73.97;;;37.53;;
44434;SDS011;30138;20.964;105.830;2024-02-04T03:53:59;68.97;;;36.67;;
44434;SDS011;30138;20.964;105.830;2024-02-04T03:59:09;69.20;;;36.22;;
44434;SDS011;30138;20.964;105.830;2024-02-04T04:04:15;70.10;;;37.75;;
44434;SDS011;30138;20.964;105.830;2024-02-04T04:09:22;68.85;;;36.53;;
44434;SDS011;30138;20.964;105.830;2024-02-04T04:14:31;70.25;;;36.33;;
44434;SDS011;30138;20.964;105.830;2024-02-04T04:19:38;69.30;;;37.30;;
44434;SDS011;30138;20.964;105.830;2024-02-04T04:24:46;70.88;;;37.50;;
44434;SDS011;30138;20.964;105.830;2024-02-04T04:29:55;61.20;;;35.58;;
44434;SDS011;30138;20.964;105.830;2024-02-04T04:35:01;71.15;;;37.53;;
44434;SDS011;30138;20.964;105.830;2024-02-04T04:40:09;67.93;;;36.17;;
44434;SDS011;30138;20.964;105.830;2024-02-04T04:45:18;70.35;;;36.33;;
44434;SDS011;30138;20.964;105.830;2024-02-04T04:50:25;70.70;;;37.70;;
44434;SDS011;30138;20.964;105.830;2024-02-04T04:55:32;69.93;;;38.03;;
44434;SDS011;30138;20.964;105.830;2024-02-04T05:00:40;65.43;;;36.97;;
44434;SDS011;30138;20.964;105.830;2024-02-04T05:05:47;62.60;;;36.35;;
44434;SDS011;30138;20.964;105.830;2024-02-04T05:10:53;62.58;;;34.95;;
44434;SDS011;30138;20.964;105.830;2024-02-04T05:16:03;64.82;;;35.78;;
44434;SDS011;30138;20.964;105.830;2024-02-04T05:21:10;64.30;;;36.63;;
44434;SDS011;30138;20.964;105.830;2024-02-04T05:26:17;64.90;;;36.13;;
44434;SDS011;30138;20.964;105.830;2024-02-04T05:31:25;66.60;;;36.65;;
44434;SDS011;30138;20.964;105.830;2024-02-04T05:36:32;74.25;;;38.42;;
44434;SDS011;30138;20.964;105.830;2024-02-04T05:41:39;69.10;;;37.60;;
44434;SDS011;30138;20.964;105.830;2024-02-04T05:46:48;65.18;;;36.20;;
44434;SDS011;30138;20.964;105.830;2024-02-04T05:51:54;66.38;;;37.13;;
44434;SDS011;30138;20.964;105.830;2024-02-04T05:57:00;71.78;;;38.17;;
44434;SDS011;30138;20.964;105.830;2024-02-04T06:02:10;66.60;;;38.30;;
44434;SDS011;30138;20.964;105.830;2024-02-04T06:07:18;70.80;;;40.60;;
44434;SDS011;30138;20.964;105.830;2024-02-04T06:12:24;69.18;;;39.20;;
44434;SDS011;30138;20.964;105.830;2024-02-04T06:17:33;67.05;;;38.78;;
44434;SDS011;30138;20.964;105.830;2024-02-04T06:22:40;65.85;;;38.28;;
44434;SDS011;30138;20.964;105.830;2024-02-04T06:27:47;65.70;;;37.95;;
44434;SDS011;30138;20.964;105.830;2024-02-04T06:32:56;65.75;;;37.08;;
44434;SDS011;30138;20.964;105.830;2024-02-04T06:38:02;64.63;;;37.17;;
44434;SDS011;30138;20.964;105.830;2024-02-04T06:43:10;64.03;;;37.58;;
44434;SDS011;30138;20.964;105.830;2024-02-04T06:48:20;64.35;;;38.10;;
44434;SDS011;30138;20.964;105.830;2024-02-04T06:53:27;56.40;;;35.20;;
44434;SDS011;30138;20.964;105.830;2024-02-04T06:58:37;57.35;;;35.22;;
44434;SDS011;30138;20.964;105.830;2024-02-04T07:03:46;59.10;;;36.83;;
44434;SDS011;30138;20.964;105.830;2024-02-04T07:08:53;60.78;;;37.67;;
44434;SDS011;30138;20.964;105.830;2024-02-04T07:14:00;68.07;;;39.42;;
44434;SDS011;30138;20.964;105.830;2024-02-04T07:19:09;69.13;;;39.92;;
44434;SDS011;30138;20.964;105.830;2024-02-04T07:24:16;67.72;;;40.35;;
44434;SDS011;30138;20.964;105.830;2024-02-04T07:29:23;69.57;;;43.15;;
44434;SDS011;30138;20.964;105.830;2024-02-04T07:34:32;72.22;;;42.67;;
44434;SDS011;30138;20.964;105.830;2024-02-04T07:39:38;75.05;;;45.22;;
44434;SDS011;30138;20.964;105.830;2024-02-04T07:44:45;78.80;;;46.78;;
44434;SDS011;30138;20.964;105.830;2024-02-04T07:49:52;78.35;;;47.42;;
44434;SDS011;30138;20.964;105.830;2024-02-04T07:54:59;77.50;;;46.88;;
44434;SDS011;30138;20.964;105.830;2024-02-04T08:00:06;74.43;;;46.60;;
44434;SDS011;30138;20.964;105.830;2024-02-04T08:05:17;75.63;;;47.55;;
44434;SDS011;30138;20.964;105.830;2024-02-04T08:10:24;75.50;;;45.70;;
44434;SDS011;30138;20.964;105.830;2024-02-04T08:15:31;76.00;;;47.97;;
44434;SDS011;30138;20.964;105.830;2024-02-04T08:20:40;78.30;;;50.42;;
44434;SDS011;30138;20.964;105.830;2024-02-04T08:25:47;86.40;;;51.22;;
44434;SDS011;30138;20.964;105.830;2024-02-04T08:30:54;79.15;;;51.28;;
44434;SDS011;30138;20.964;105.830;2024-02-04T08:36:03;84.15;;;52.58;;
44434;SDS011;30138;20.964;105.830;2024-02-04T08:46:17;78.35;;;50.20;;
44434;SDS011;30138;20.964;105.830;2024-02-04T08:51:27;81.70;;;53.25;;
44434;SDS011;30138;20.964;105.830;2024-02-04T08:56:34;85.93;;;52.65;;
44434;SDS011;30138;20.964;105.830;2024-02-04T09:01:42;89.18;;;55.97;;
44434;SDS011;30138;20.964;105.830;2024-02-04T09:06:51;84.50;;;57.95;;
44434;SDS011;30138;20.964;105.830;2024-02-04T09:11:58;90.32;;;58.92;;
44434;SDS011;30138;20.964;105.830;2024-02-04T09:17:04;90.95;;;60.10;;
44434;SDS011;30138;20.964;105.830;2024-02-04T09:22:14;91.40;;;59.05;;
44434;SDS011;30138;20.964;105.830;2024-02-04T09:27:20;92.45;;;59.38;;
44434;SDS011;30138;20.964;105.830;2024-02-04T09:32:26;86.88;;;57.17;;
44434;SDS011;30138;20.964;105.830;2024-02-04T09:37:36;84.25;;;54.65;;
44434;SDS011;30138;20.964;105.830;2024-02-04T09:42:43;77.55;;;53.65;;
44434;SDS011;30138;20.964;105.830;2024-02-04T09:47:51;80.00;;;53.03;;
44434;SDS011;30138;20.964;105.830;2024-02-04T09:53:00;80.47;;;53.08;;
44434;SDS011;30138;20.964;105.830;2024-02-04T09:58:08;70.30;;;48.78;;
44434;SDS011;30138;20.964;105.830;2024-02-04T10:03:15;72.97;;;49.40;;
44434;SDS011;30138;20.964;105.830;2024-02-04T10:08:25;70.40;;;47.95;;
44434;SDS011;30138;20.964;105.830;2024-02-04T10:13:42;69.95;;;48.55;;
44434;SDS011;30138;20.964;105.830;2024-02-04T10:18:49;73.32;;;48.60;;
44434;SDS011;30138;20.964;105.830;2024-02-04T10:23:59;71.68;;;47.75;;
44434;SDS011;30138;20.964;105.830;2024-02-04T10:29:07;63.78;;;45.17;;
44434;SDS011;30138;20.964;105.830;2024-02-04T10:34:16;67.38;;;44.58;;
44434;SDS011;30138;20.964;105.830;2024-02-04T10:39:24;66.53;;;44.30;;
44434;SDS011;30138;20.964;105.830;2024-02-04T10:44:32;60.13;;;41.58;;
44434;SDS011;30138;20.964;105.830;2024-02-04T10:49:41;61.97;;;42.83;;
44434;SDS011;30138;20.964;105.830;2024-02-04T10:54:56;64.82;;;43.95;;
44434;SDS011;30138;20.964;105.830;2024-02-04T11:00:03;65.93;;;43.03;;
44434;SDS011;30138;20.964;105.830;2024-02-04T11:05:13;72.30;;;45.50;;
44434;SDS011;30138;20.964;105.830;2024-02-04T11:10:23;68.13;;;44.05;;
44434;SDS011;30138;20.964;105.830;2024-02-04T11:15:35;63.00;;;41.40;;
44434;SDS011;30138;20.964;105.830;2024-02-04T11:20:50;56.75;;;38.45;;
44434;SDS011;30138;20.964;105.830;2024-02-04T11:26:26;53.70;;;37.40;;
44434;SDS011;30138;20.964;105.830;2024-02-04T11:31:32;62.88;;;40.15;;
44434;SDS011;30138;20.964;105.830;2024-02-04T11:36:38;61.53;;;39.95;;
44434;SDS011;30138;20.964;105.830;2024-02-04T11:41:47;60.60;;;40.53;;
44434;SDS011;30138;20.964;105.830;2024-02-04T11:46:55;64.32;;;41.90;;
44434;SDS011;30138;20.964;105.830;2024-02-04T11:52:01;64.82;;;41.55;;
44434;SDS011;30138;20.964;105.830;2024-02-04T11:57:10;64.75;;;42.47;;
44434;SDS011;30138;20.964;105.830;2024-02-04T12:02:16;68.65;;;43.25;;
44434;SDS011;30138;20.964;105.830;2024-02-04T12:07:23;70.72;;;45.33;;
44434;SDS011;30138;20.964;105.830;2024-02-04T12:12:33;71.95;;;46.15;;
44434;SDS011;30138;20.964;105.830;2024-02-04T12:17:40;70.05;;;44.53;;
44434;SDS011;30138;20.964;105.830;2024-02-04T12:22:47;72.05;;;44.72;;
44434;SDS011;30138;20.964;105.830;2024-02-04T12:27:56;75.47;;;47.80;;
44434;SDS011;30138;20.964;105.830;2024-02-04T12:33:06;67.00;;;42.88;;
44434;SDS011;30138;20.964;105.830;2024-02-04T12:38:12;74.10;;;44.22;;
44434;SDS011;30138;20.964;105.830;2024-02-04T12:43:24;75.35;;;44.15;;
44434;SDS011;30138;20.964;105.830;2024-02-04T12:48:30;69.15;;;42.75;;
44434;SDS011;30138;20.964;105.830;2024-02-04T12:53:36;60.42;;;38.75;;
44434;SDS011;30138;20.964;105.830;2024-02-04T12:58:44;67.97;;;41.95;;
44434;SDS011;30138;20.964;105.830;2024-02-04T13:03:54;56.47;;;38.60;;
44434;SDS011;30138;20.964;105.830;2024-02-04T13:09:01;67.80;;;40.13;;
44434;SDS011;30138;20.964;105.830;2024-02-04T13:14:12;64.38;;;40.60;;
44434;SDS011;30138;20.964;105.830;2024-02-04T13:19:20;65.88;;;39.20;;
44434;SDS011;30138;20.964;105.830;2024-02-04T13:24:27;66.97;;;39.90;;
44434;SDS011;30138;20.964;105.830;2024-02-04T13:29:36;64.05;;;39.58;;
44434;SDS011;30138;20.964;105.830;2024-02-04T13:34:42;62.20;;;39.70;;
44434;SDS011;30138;20.964;105.830;2024-02-04T13:39:51;65.55;;;40.40;;
44434;SDS011;30138;20.964;105.830;2024-02-04T13:44:59;57.72;;;37.33;;
44434;SDS011;30138;20.964;105.830;2024-02-04T13:50:06;64.30;;;37.88;;
44434;SDS011;30138;20.964;105.830;2024-02-04T13:55:14;66.28;;;40.47;;
44434;SDS011;30138;20.964;105.830;2024-02-04T14:00:22;64.70;;;39.85;;
44434;SDS011;30138;20.964;105.830;2024-02-04T14:05:29;62.35;;;39.88;;
44434;SDS011;30138;20.964;105.830;2024-02-04T14:10:39;80.75;;;48.28;;
44434;SDS011;30138;20.964;105.830;2024-02-04T14:15:49;70.18;;;42.75;;
44434;SDS011;30138;20.964;105.830;2024-02-04T14:20:56;67.07;;;43.25;;
44434;SDS011;30138;20.964;105.830;2024-02-04T14:26:02;72.72;;;44.10;;
44434;SDS011;30138;20.964;105.830;2024-02-04T14:31:12;77.38;;;46.00;;
44434;SDS011;30138;20.964;105.830;2024-02-04T14:36:18;68.97;;;44.83;;
44434;SDS011;30138;20.964;105.830;2024-02-04T14:41:25;78.15;;;46.28;;
44434;SDS011;30138;20.964;105.830;2024-02-04T14:46:34;76.80;;;45.92;;
44434;SDS011;30138;20.964;105.830;2024-02-04T14:51:41;70.63;;;45.28;;
44434;SDS011;30138;20.964;105.830;2024-02-04T14:56:48;70.40;;;43.95;;
44434;SDS011;30138;20.964;105.830;2024-02-04T15:01:58;72.10;;;45.13;;
44434;SDS011;30138;20.964;105.830;2024-02-04T15:07:18;70.82;;;43.47;;
44434;SDS011;30138;20.964;105.830;2024-02-04T15:12:25;73.00;;;44.15;;
44434;SDS011;30138;20.964;105.830;2024-02-04T15:17:35;67.82;;;43.38;;
44434;SDS011;30138;20.964;105.830;2024-02-04T15:22:43;77.60;;;44.42;;
44434;SDS011;30138;20.964;105.830;2024-02-04T15:27:53;68.32;;;42.15;;
44434;SDS011;30138;20.964;105.830;2024-02-04T15:33:03;73.00;;;42.72;;
44434;SDS011;30138;20.964;105.830;2024-02-04T15:38:11;66.07;;;41.63;;
44434;SDS011;30138;20.964;105.830;2024-02-04T15:43:17;79.38;;;44.97;;
44434;SDS011;30138;20.964;105.830;2024-02-04T15:48:27;74.90;;;42.92;;
44434;SDS011;30138;20.964;105.830;2024-02-04T15:53:35;68.20;;;41.22;;
44434;SDS011;30138;20.964;105.830;2024-02-04T15:58:43;65.65;;;40.78;;
44434;SDS011;30138;20.964;105.830;2024-02-04T16:03:53;65.07;;;39.85;;
44434;SDS011;30138;20.964;105.830;2024-02-04T16:09:00;70.55;;;40.78;;
44434;SDS011;30138;20.964;105.830;2024-02-04T16:14:10;64.22;;;39.40;;
44434;SDS011;30138;20.964;105.830;2024-02-04T16:19:19;76.38;;;44.35;;
44434;SDS011;30138;20.964;105.830;2024-02-04T16:24:26;66.65;;;39.65;;
44434;SDS011;30138;20.964;105.830;2024-02-04T16:29:33;69.22;;;39.35;;
44434;SDS011;30138;20.964;105.830;2024-02-04T16:34:42;68.05;;;38.70;;
44434;SDS011;30138;20.964;105.830;2024-02-04T16:39:49;65.57;;;39.40;;
44434;SDS011;30138;20.964;105.830;2024-02-04T16:44:56;68.78;;;39.53;;
44434;SDS011;30138;20.964;105.830;2024-02-04T16:50:05;70.18;;;40.83;;
44434;SDS011;30138;20.964;105.830;2024-02-04T16:55:12;71.05;;;40.15;;
44434;SDS011;30138;20.964;105.830;2024-02-04T17:00:19;70.22;;;40.15;;
44434;SDS011;30138;20.964;105.830;2024-02-04T17:05:28;67.65;;;40.00;;
44434;SDS011;30138;20.964;105.830;2024-02-04T17:10:35;75.15;;;41.80;;
44434;SDS011;30138;20.964;105.830;2024-02-04T17:15:43;74.05;;;43.08;;
44434;SDS011;30138;20.964;105.830;2024-02-04T17:20:53;79.63;;;43.65;;
44434;SDS011;30138;20.964;105.830;2024-02-04T17:26:01;80.78;;;42.65;;
44434;SDS011;30138;20.964;105.830;2024-02-04T17:31:12;69.78;;;41.72;;
44434;SDS011;30138;20.964;105.830;2024-02-04T17:36:22;70.07;;;42.15;;
44434;SDS011;30138;20.964;105.830;2024-02-04T17:41:29;80.78;;;43.17;;
44434;SDS011;30138;20.964;105.830;2024-02-04T17:46:35;79.43;;;43.45;;
44434;SDS011;30138;20.964;105.830;2024-02-04T17:51:43;81.85;;;44.83;;
44434;SDS011;30138;20.964;105.830;2024-02-04T17:56:50;82.05;;;42.47;;
44434;SDS011;30138;20.964;105.830;2024-02-04T18:01:56;81.38;;;43.40;;
44434;SDS011;30138;20.964;105.830;2024-02-04T18:07:05;76.65;;;42.72;;
44434;SDS011;30138;20.964;105.830;2024-02-04T18:12:13;72.35;;;42.92;;
44434;SDS011;30138;20.964;105.830;2024-02-04T18:17:20;78.40;;;43.65;;
44434;SDS011;30138;20.964;105.830;2024-02-04T18:22:29;74.10;;;42.45;;
44434;SDS011;30138;20.964;105.830;2024-02-04T18:27:36;80.25;;;43.63;;
44434;SDS011;30138;20.964;105.830;2024-02-04T18:32:43;92.28;;;46.75;;
44434;SDS011;30138;20.964;105.830;2024-02-04T18:37:52;85.50;;;44.53;;
44434;SDS011;30138;20.964;105.830;2024-02-04T18:43:00;90.00;;;46.78;;
44434;SDS011;30138;20.964;105.830;2024-02-04T18:48:07;87.18;;;46.28;;
44434;SDS011;30138;20.964;105.830;2024-02-04T18:53:18;93.30;;;48.17;;
44434;SDS011;30138;20.964;105.830;2024-02-04T18:58:26;96.22;;;48.83;;
44434;SDS011;30138;20.964;105.830;2024-02-04T19:03:34;92.70;;;47.67;;
44434;SDS011;30138;20.964;105.830;2024-02-04T19:08:44;94.43;;;49.10;;
44434;SDS011;30138;20.964;105.830;2024-02-04T19:13:50;102.55;;;52.30;;
44434;SDS011;30138;20.964;105.830;2024-02-04T19:18:58;113.00;;;54.33;;
44434;SDS011;30138;20.964;105.830;2024-02-04T19:24:06;109.80;;;53.42;;
44434;SDS011;30138;20.964;105.830;2024-02-04T19:29:14;114.07;;;57.95;;
44434;SDS011;30138;20.964;105.830;2024-02-04T19:34:21;120.10;;;58.22;;
44434;SDS011;30138;20.964;105.830;2024-02-04T19:39:30;120.00;;;57.13;;
44434;SDS011;30138;20.964;105.830;2024-02-04T19:44:36;120.72;;;56.88;;
44434;SDS011;30138;20.964;105.830;2024-02-04T19:49:43;123.40;;;58.78;;
44434;SDS011;30138;20.964;105.830;2024-02-04T19:54:52;119.13;;;59.05;;
44434;SDS011;30138;20.964;105.830;2024-02-04T19:59:59;124.28;;;59.30;;
44434;SDS011;30138;20.964;105.830;2024-02-04T20:05:11;123.97;;;58.42;;
44434;SDS011;30138;20.964;105.830;2024-02-04T20:10:22;116.88;;;59.38;;
44434;SDS011;30138;20.964;105.830;2024-02-04T20:15:28;113.93;;;57.50;;
44434;SDS011;30138;20.964;105.830;2024-02-04T20:20:36;115.63;;;56.45;;
44434;SDS011;30138;20.964;105.830;2024-02-04T20:25:46;103.05;;;54.50;;
44434;SDS011;30138;20.964;105.830;2024-02-04T20:30:57;102.45;;;53.78;;
44434;SDS011;30138;20.964;105.830;2024-02-04T20:36:06;101.35;;;51.53;;
44434;SDS011;30138;20.964;105.830;2024-02-04T20:41:14;100.70;;;50.90;;
44434;SDS011;30138;20.964;105.830;2024-02-04T20:46:20;95.75;;;49.13;;
44434;SDS011;30138;20.964;105.830;2024-02-04T20:51:28;91.68;;;47.42;;
44434;SDS011;30138;20.964;105.830;2024-02-04T20:56:36;89.18;;;46.65;;
44434;SDS011;30138;20.964;105.830;2024-02-04T21:01:45;92.10;;;46.20;;
44434;SDS011;30138;20.964;105.830;2024-02-04T21:06:52;90.30;;;46.35;;
44434;SDS011;30138;20.964;105.830;2024-02-04T21:12:00;89.68;;;45.50;;
44434;SDS011;30138;20.964;105.830;2024-02-04T21:17:07;90.40;;;47.05;;
44434;SDS011;30138;20.964;105.830;2024-02-04T21:22:14;88.03;;;47.00;;
44434;SDS011;30138;20.964;105.830;2024-02-04T21:27:23;104.13;;;49.20;;
44434;SDS011;30138;20.964;105.830;2024-02-04T21:32:30;104.50;;;49.97;;
44434;SDS011;30138;20.964;105.830;2024-02-04T21:37:37;101.00;;;48.50;;
44434;SDS011;30138;20.964;105.830;2024-02-04T21:42:46;97.07;;;48.80;;
44434;SDS011;30138;20.964;105.830;2024-02-04T21:47:53;97.55;;;49.92;;
44434;SDS011;30138;20.964;105.830;2024-02-04T21:53:04;100.55;;;50.45;;
44434;SDS011;30138;20.964;105.830;2024-02-04T21:58:12;96.47;;;49.63;;
44434;SDS011;30138;20.964;105.830;2024-02-04T22:03:20;100.35;;;49.55;;
44434;SDS011;30138;20.964;105.830;2024-02-04T22:08:26;102.32;;;48.63;;
44434;SDS011;30138;20.964;105.830;2024-02-04T22:13:33;100.72;;;49.30;;
44434;SDS011;30138;20.964;105.830;2024-02-04T22:18:41;105.88;;;50.05;;
44434;SDS011;30138;20.964;105.830;2024-02-04T22:23:47;97.93;;;49.58;;
44434;SDS011;30138;20.964;105.830;2024-02-04T22:28:55;102.85;;;49.60;;
44434;SDS011;30138;20.964;105.830;2024-02-04T22:34:02;101.97;;;50.00;;
44434;SDS011;30138;20.964;105.830;2024-02-04T22:39:08;99.30;;;51.38;;
44434;SDS011;30138;20.964;105.830;2024-02-04T22:44:16;107.45;;;51.78;;
44434;SDS011;30138;20.964;105.830;2024-02-04T22:49:24;102.43;;;52.40;;
44434;SDS011;30138;20.964;105.830;2024-02-04T22:54:30;99.43;;;51.55;;
44434;SDS011;30138;20.964;105.830;2024-02-04T22:59:39;102.55;;;53.53;;
44434;SDS011;30138;20.964;105.830;2024-02-04T23:04:46;103.78;;;53.17;;
44434;SDS011;30138;20.964;105.830;2024-02-04T23:09:53;97.22;;;52.92;;
44434;SDS011;30138;20.964;105.830;2024-02-04T23:15:01;100.57;;;54.17;;
44434;SDS011;30138;20.964;105.830;2024-02-04T23:20:08;99.70;;;53.55;;
44434;SDS011;30138;20.964;105.830;2024-02-04T23:25:16;103.07;;;55.10;;
44434;SDS011;30138;20.964;105.830;2024-02-04T23:30:24;96.20;;;54.47;;
44434;SDS011;30138;20.964;105.830;2024-02-04T23:35:32;95.60;;;52.95;;
44434;SDS011;30138;20.964;105.830;2024-02-04T23:40:39;98.93;;;54.45;;
44434;SDS011;30138;20.964;105.830;2024-02-04T23:45:48;97.70;;;55.67;;
44434;SDS011;30138;20.964;105.830;2024-02-04T23:50:54;96.32;;;55.20;;
44434;SDS011;30138;20.964;105.830;2024-02-04T23:56:02;90.55;;;52.90;;
